createdAt,value
2023-03-10T04:54:44.452Z,8.50
2023-03-10T04:57:10.926Z,9.23
2023-03-10T04:59:37.887Z,8.73
2023-03-10T05:02:09.954Z,8.00
2023-03-10T05:04:36.509Z,7.65
2023-03-10T05:07:03.070Z,7.60
2023-03-10T05:09:29.604Z,7.80
2023-03-10T05:11:56.239Z,8.05
2023-03-10T05:14:22.744Z,6.80
2023-03-10T05:16:51.478Z,7.40
2023-03-10T05:19:18.180Z,7.28
2023-03-10T05:21:44.745Z,8.00
2023-03-10T05:24:11.280Z,7.47
2023-03-10T05:26:40.305Z,6.85
2023-03-10T05:29:06.774Z,7.05
2023-03-10T05:31:33.336Z,7.47
2023-03-10T05:33:59.955Z,7.03
2023-03-10T05:36:26.569Z,7.20
2023-03-10T05:38:53.149Z,7.78
2023-03-10T05:41:19.926Z,7.90
2023-03-10T05:43:46.421Z,8.07
2023-03-10T05:46:13.073Z,6.93
2023-03-10T05:48:42.099Z,8.07
2023-03-10T05:51:11.323Z,7.63
2023-03-10T05:53:38.570Z,8.32
2023-03-10T05:56:07.460Z,8.90
2023-03-10T05:58:34.434Z,7.20
2023-03-10T06:01:01.188Z,7.90
2023-03-10T06:03:30.001Z,6.70
2023-03-10T06:06:00.282Z,7.38
2023-03-10T06:08:30.247Z,8.20
2023-03-10T06:10:59.065Z,7.17
2023-03-10T06:13:28.112Z,7.28
2023-03-10T06:15:59.419Z,6.97
2023-03-10T06:18:27.262Z,6.78
2023-03-10T06:20:54.170Z,7.22
2023-03-10T06:23:22.117Z,6.77
2023-03-10T06:26:06.049Z,7.30
2023-03-10T06:28:33.888Z,7.25
2023-03-10T06:31:02.108Z,7.55
2023-03-10T06:33:31.428Z,7.78
2023-03-10T06:35:58.383Z,7.83
2023-03-10T06:38:27.696Z,8.45
2023-03-10T06:40:56.672Z,8.07
2023-03-10T06:43:26.319Z,7.82
2023-03-10T06:46:01.239Z,7.68
2023-03-10T06:48:27.858Z,7.87
2023-03-10T06:50:54.533Z,7.85
2023-03-10T06:53:25.492Z,7.45
2023-03-10T06:56:11.662Z,8.05
2023-03-10T06:58:41.258Z,7.95
2023-03-10T07:01:18.323Z,8.60
2023-03-10T07:03:44.912Z,8.02
2023-03-10T07:06:11.497Z,7.63
2023-03-10T07:08:38.175Z,7.78
2023-03-10T07:11:04.914Z,7.93
2023-03-10T07:13:35.169Z,8.40
2023-03-10T07:16:01.956Z,7.40
2023-03-10T07:18:29.662Z,7.28
2023-03-10T07:20:58.719Z,8.80
2023-03-10T07:23:25.709Z,7.72
2023-03-10T07:25:56.733Z,8.03
2023-03-10T07:28:29.017Z,9.00
2023-03-10T07:31:00.552Z,8.13
2023-03-10T07:33:27.286Z,8.55
2023-03-10T07:35:53.959Z,8.23
2023-03-10T07:38:20.805Z,8.80
2023-03-10T07:40:47.401Z,9.15
2023-03-10T07:43:16.329Z,8.40
2023-03-10T07:45:43.031Z,8.30
2023-03-10T07:48:11.758Z,8.25
2023-03-10T07:50:38.489Z,8.60
2023-03-10T07:53:07.444Z,10.02
2023-03-10T07:55:34.027Z,8.25
2023-03-10T07:58:03.036Z,8.05
2023-03-10T08:00:29.663Z,8.07
2023-03-10T08:02:56.417Z,7.47
2023-03-10T08:05:23.166Z,8.10
2023-03-10T08:07:49.792Z,7.93
2023-03-10T08:10:16.474Z,8.13
2023-03-10T08:12:45.278Z,8.75
2023-03-10T08:15:14.840Z,7.77
2023-03-10T08:17:43.615Z,8.20
2023-03-10T08:20:11.074Z,9.52
2023-03-10T08:22:37.814Z,9.23
2023-03-10T08:25:06.801Z,8.52
2023-03-10T08:27:33.586Z,8.83
2023-03-10T08:30:00.182Z,9.35
2023-03-10T08:32:26.777Z,9.82
2023-03-10T08:34:53.340Z,8.90
2023-03-10T08:37:19.912Z,8.77
2023-03-10T08:39:50.238Z,9.87
2023-03-10T08:42:16.782Z,8.27
2023-03-10T08:44:44.515Z,9.65
2023-03-10T08:47:11.494Z,8.23
2023-03-10T08:49:38.130Z,9.30
2023-03-10T08:52:08.003Z,7.97
2023-03-10T08:54:34.770Z,8.02
2023-03-10T08:57:01.417Z,8.10
2023-03-10T08:59:31.132Z,8.38
2023-03-10T09:02:02.285Z,8.20
2023-03-10T09:04:28.919Z,7.73
2023-03-10T09:06:55.552Z,7.88
2023-03-10T09:09:22.097Z,8.38
2023-03-10T09:11:50.923Z,7.50
2023-03-10T09:14:17.676Z,7.63
2023-03-10T09:16:45.148Z,7.63
2023-03-10T09:19:11.793Z,7.85
2023-03-10T09:21:38.893Z,7.85
2023-03-10T09:24:05.906Z,8.45
2023-03-10T09:26:34.714Z,8.23
2023-03-10T09:29:02.152Z,8.10
2023-03-10T09:31:32.378Z,8.52
2023-03-10T09:33:59.262Z,8.63
2023-03-10T09:36:32.006Z,8.82
2023-03-10T09:38:59.344Z,9.90
2023-03-10T09:41:35.124Z,9.40
2023-03-10T09:44:43.392Z,8.55
2023-03-10T09:47:09.962Z,8.30
2023-03-10T09:49:47.324Z,7.70
2023-03-10T09:52:24.489Z,7.85
2023-03-10T09:54:56.516Z,7.23
2023-03-10T09:57:23.752Z,7.97
2023-03-10T09:59:53.698Z,6.38
2023-03-10T10:02:32.986Z,6.18
2023-03-10T10:05:04.047Z,6.18
2023-03-10T10:07:41.465Z,5.77
2023-03-10T10:10:24.793Z,6.20
2023-03-10T10:12:54.600Z,6.65
2023-03-10T10:15:27.306Z,6.20
2023-03-10T10:18:17.990Z,6.25
2023-03-10T10:20:53.831Z,6.43
2023-03-10T10:23:45.144Z,6.22
2023-03-10T10:26:19.597Z,6.93
2023-03-10T10:28:47.895Z,5.88
2023-03-10T10:31:20.889Z,6.10
2023-03-10T10:33:55.024Z,7.20
2023-03-10T10:36:26.443Z,6.00
2023-03-10T10:38:55.179Z,6.63
2023-03-10T10:41:29.107Z,7.00
2023-03-10T10:44:06.165Z,5.93
2023-03-10T10:46:35.031Z,5.90
2023-03-10T10:49:25.966Z,4.97
2023-03-10T10:52:00.163Z,4.80
2023-03-10T10:54:38.918Z,4.40
2023-03-10T10:57:20.138Z,4.88
2023-03-10T10:59:49.006Z,4.53
2023-03-10T11:02:32.867Z,5.32
2023-03-10T11:05:21.531Z,4.30
2023-03-10T11:07:50.846Z,4.32
2023-03-10T11:10:20.447Z,4.63
2023-03-10T11:13:15.937Z,4.63
2023-03-10T11:16:11.900Z,4.55
2023-03-10T11:18:52.122Z,4.57
2023-03-10T11:21:24.102Z,4.82
2023-03-10T11:24:05.733Z,4.80
2023-03-10T11:26:45.134Z,4.60
2023-03-10T11:29:36.358Z,4.60
2023-03-10T11:32:18.855Z,4.70
2023-03-10T11:34:49.811Z,3.92
2023-03-10T11:37:36.676Z,4.30
2023-03-10T11:40:31.064Z,3.80
2023-03-10T11:43:29.943Z,3.92
2023-03-10T11:46:01.026Z,3.63
2023-03-10T11:48:41.548Z,3.50
2023-03-10T11:51:14.762Z,3.95
2023-03-10T11:53:45.813Z,4.17
2023-03-10T11:56:15.008Z,3.67
2023-03-10T11:58:46.790Z,3.88
2023-03-10T12:01:18.022Z,3.80
2023-03-10T12:04:08.406Z,3.78
2023-03-10T12:06:50.646Z,3.53
2023-03-10T12:09:28.424Z,3.88
2023-03-10T12:11:57.420Z,3.70
2023-03-10T12:14:26.608Z,3.45
2023-03-10T12:16:53.673Z,3.75
2023-03-10T12:19:22.744Z,3.77
2023-03-10T12:22:27.022Z,3.70
2023-03-10T12:24:53.674Z,3.60
2023-03-10T12:27:20.317Z,3.30
2023-03-10T12:29:46.910Z,3.63
2023-03-10T12:32:39.446Z,2.60
2023-03-10T12:35:37.507Z,2.90
2023-03-10T12:38:26.972Z,2.72
2023-03-10T12:40:53.727Z,2.88
2023-03-10T12:43:48.783Z,2.50
2023-03-10T12:46:24.005Z,2.97
2023-03-10T12:49:00.765Z,2.55
2023-03-10T12:51:28.665Z,3.13
2023-03-10T12:54:00.810Z,2.75
2023-03-10T12:56:39.413Z,2.47
2023-03-10T12:59:35.728Z,3.30
2023-03-10T13:02:06.028Z,2.50
2023-03-10T13:04:35.169Z,2.70
2023-03-10T13:07:04.109Z,2.40
2023-03-10T13:09:41.274Z,2.40
2023-03-10T13:12:21.607Z,2.33
2023-03-10T13:14:54.007Z,2.55
2023-03-10T13:17:26.453Z,2.25
2023-03-10T13:20:05.609Z,2.00
2023-03-10T13:22:33.526Z,1.70
2023-03-10T13:25:07.057Z,1.70
2023-03-10T13:27:34.794Z,1.98
2023-03-10T13:30:04.296Z,2.45
2023-03-10T13:32:31.814Z,1.70
2023-03-10T13:35:05.832Z,1.70
2023-03-10T13:37:32.349Z,2.20
2023-03-10T13:40:10.416Z,2.10
2023-03-10T13:42:43.919Z,2.10
2023-03-10T13:45:24.457Z,2.47
2023-03-10T13:47:52.058Z,2.28
2023-03-10T13:50:18.860Z,1.93
2023-03-10T13:52:57.770Z,2.17
2023-03-10T13:55:24.433Z,2.20
2023-03-10T13:57:51.554Z,2.65
2023-03-10T14:00:23.874Z,2.47
2023-03-10T14:02:53.050Z,2.90
2023-03-10T14:05:41.146Z,2.35
2023-03-10T14:08:28.573Z,3.33
2023-03-10T14:11:32.341Z,2.03
2023-03-10T14:14:00.278Z,2.13
2023-03-10T14:16:50.558Z,2.63
2023-03-10T14:19:42.168Z,2.65
2023-03-10T14:22:29.046Z,2.05
2023-03-10T14:24:56.543Z,2.80
2023-03-10T14:27:23.302Z,2.40
2023-03-10T14:29:52.340Z,2.60
2023-03-10T14:32:19.284Z,2.30
2023-03-10T14:34:46.820Z,2.55
2023-03-10T14:37:15.681Z,2.20
2023-03-10T14:39:42.294Z,2.30
2023-03-10T14:42:18.396Z,1.90
2023-03-10T14:44:45.059Z,2.28
2023-03-10T14:47:12.163Z,2.40
2023-03-10T14:49:38.791Z,2.30
2023-03-10T14:52:10.554Z,2.33
2023-03-10T14:54:37.095Z,2.70
2023-03-10T14:57:03.760Z,2.38
2023-03-10T14:59:30.269Z,2.35
2023-03-10T15:01:58.241Z,2.88
2023-03-10T15:04:24.860Z,2.97
2023-03-10T15:06:51.515Z,2.50
2023-03-10T15:09:19.805Z,3.58
2023-03-10T15:11:46.317Z,2.90
2023-03-10T15:14:18.609Z,2.92
2023-03-10T15:16:45.697Z,3.10
2023-03-10T15:19:22.098Z,3.40
2023-03-10T15:21:48.747Z,3.15
2023-03-10T15:24:15.409Z,3.58
2023-03-10T15:26:42.158Z,3.50
2023-03-10T15:29:13.497Z,3.80
2023-03-10T15:31:40.206Z,3.50
2023-03-10T15:34:09.162Z,3.63
2023-03-10T15:36:36.289Z,3.75
2023-03-10T15:39:03.796Z,4.10
2023-03-10T15:41:33.921Z,4.28
2023-03-10T15:44:02.631Z,3.23
2023-03-10T15:46:29.236Z,3.13
2023-03-10T15:48:55.824Z,3.47
2023-03-10T15:51:23.038Z,3.28
2023-03-10T15:53:50.160Z,3.25
2023-03-10T15:56:19.201Z,4.30
2023-03-10T15:58:45.891Z,3.95
2023-03-10T16:01:18.092Z,3.50
2023-03-10T16:03:44.671Z,4.43
2023-03-10T16:06:12.591Z,3.33
2023-03-10T16:08:39.932Z,3.20
2023-03-10T16:11:15.648Z,3.58
2023-03-10T16:13:45.174Z,3.20
2023-03-10T16:16:12.936Z,3.58
2023-03-10T16:18:39.553Z,3.50
2023-03-10T16:21:06.081Z,3.97
2023-03-10T16:23:33.374Z,3.45
2023-03-10T16:26:07.461Z,3.53
2023-03-10T16:28:34.824Z,3.22
2023-03-10T16:31:02.519Z,4.20
2023-03-10T16:33:29.879Z,3.43
2023-03-10T16:36:00.772Z,3.55
2023-03-10T16:38:30.725Z,4.07
2023-03-10T16:40:57.993Z,3.35
2023-03-10T16:43:28.341Z,3.53
2023-03-10T16:46:07.964Z,3.73
2023-03-10T16:48:37.402Z,3.83
2023-03-10T16:51:19.334Z,4.20
2023-03-10T16:53:48.390Z,3.90
2023-03-10T16:56:15.591Z,3.90
2023-03-10T16:58:42.467Z,4.30
2023-03-10T17:01:09.160Z,3.90
2023-03-10T17:03:39.582Z,3.63
2023-03-10T17:06:08.012Z,4.35
2023-03-10T17:08:34.580Z,4.28
2023-03-10T17:11:03.441Z,3.90
2023-03-10T17:13:32.994Z,4.45
2023-03-10T17:16:00.394Z,3.95
2023-03-10T17:18:27.314Z,4.63
2023-03-10T17:20:53.903Z,4.53
2023-03-10T17:23:22.276Z,4.90
2023-03-10T17:25:51.953Z,4.47
2023-03-10T17:28:18.473Z,4.50
2023-03-10T17:30:45.073Z,4.88
2023-03-10T17:33:14.046Z,4.60
2023-03-10T17:35:40.572Z,4.70
2023-03-10T17:38:07.108Z,4.78
2023-03-10T17:40:34.756Z,5.05
2023-03-10T17:43:13.241Z,5.97
2023-03-10T17:46:03.167Z,6.15
2023-03-10T17:48:29.850Z,5.20
2023-03-10T17:50:57.178Z,4.78
2023-03-10T17:53:24.766Z,4.20
2023-03-10T17:55:51.494Z,3.30
2023-03-10T17:58:18.389Z,3.03
2023-03-10T18:00:45.039Z,3.20
2023-03-10T18:03:11.680Z,3.10
2023-03-10T18:05:44.706Z,2.65
2023-03-10T18:08:12.219Z,2.53
2023-03-10T18:10:39.082Z,3.38
2023-03-10T18:13:08.946Z,2.83
2023-03-10T18:15:35.524Z,2.80
2023-03-10T18:18:02.269Z,2.38
2023-03-10T18:20:29.208Z,2.53
2023-03-10T18:22:55.682Z,2.40
2023-03-10T18:25:22.203Z,2.90
2023-03-10T18:27:49.030Z,2.78
2023-03-10T18:30:16.172Z,2.47
2023-03-10T18:32:43.224Z,2.75
2023-03-10T18:35:10.957Z,2.72
2023-03-10T18:37:37.524Z,2.87
2023-03-10T18:40:06.017Z,3.00
2023-03-10T18:42:33.164Z,2.60
2023-03-10T18:45:04.205Z,2.55
2023-03-10T18:47:30.710Z,2.67
2023-03-10T18:49:58.579Z,2.50
2023-03-10T18:52:28.428Z,3.13
2023-03-10T18:54:54.924Z,3.60
2023-03-10T18:57:22.442Z,2.63
2023-03-10T18:59:48.994Z,2.90
2023-03-10T19:02:16.124Z,3.17
2023-03-10T19:04:47.597Z,3.00
2023-03-10T19:07:15.522Z,3.47
2023-03-10T19:09:42.072Z,3.80
2023-03-10T19:12:08.670Z,3.65
2023-03-10T19:14:36.126Z,3.67
2023-03-10T19:17:02.769Z,2.92
2023-03-10T19:19:29.284Z,2.92
2023-03-10T19:21:58.113Z,3.33
2023-03-10T19:24:25.288Z,2.83
2023-03-10T19:26:51.767Z,3.00
2023-03-10T19:29:18.496Z,3.13
2023-03-10T19:31:45.056Z,3.45
2023-03-10T19:34:12.105Z,3.83
2023-03-10T19:36:38.605Z,3.20
2023-03-10T19:39:07.328Z,4.00
2023-03-10T19:41:33.898Z,3.80
2023-03-10T19:44:00.367Z,4.05
2023-03-10T19:46:26.960Z,3.50
2023-03-10T19:48:53.590Z,3.13
2023-03-10T19:51:22.843Z,3.33
2023-03-10T19:53:51.352Z,3.58
2023-03-10T19:56:18.618Z,2.88
2023-03-10T19:58:49.396Z,3.50
2023-03-10T20:01:17.698Z,4.10
2023-03-10T20:03:44.433Z,3.67
2023-03-10T20:06:10.999Z,3.80
2023-03-10T20:08:38.211Z,4.50
2023-03-10T20:11:05.683Z,4.00
2023-03-10T20:13:32.963Z,4.65
2023-03-10T20:15:59.749Z,5.10
2023-03-10T20:18:26.252Z,5.65
2023-03-10T20:20:55.013Z,4.35
2023-03-10T20:23:21.529Z,4.13
2023-03-10T20:25:49.499Z,4.65
2023-03-10T20:28:16.216Z,4.63
2023-03-10T20:30:42.892Z,4.30
2023-03-10T20:33:09.433Z,4.45
2023-03-10T20:35:38.091Z,4.15
2023-03-10T20:38:04.803Z,4.60
2023-03-10T20:40:31.620Z,3.83
2023-03-10T20:42:59.785Z,3.92
2023-03-10T20:45:27.039Z,3.95
2023-03-10T20:47:53.896Z,3.88
2023-03-10T20:50:20.889Z,5.22
2023-03-10T20:52:47.793Z,4.27
2023-03-10T20:55:20.845Z,4.70
2023-03-10T20:57:48.727Z,4.25
2023-03-10T21:00:17.691Z,4.43
